Oriental Freesia — ZGCD7 — position and weather

sailwx.info

Track history (hours):
 
Tides and Currents Weather Stations Pressure Air Temp Water Temp Dewpoint Dewpoint Depression Visibility Wind Speed Wind Dir Waves Ship Positions

Oriental Freesia

Last reported at 2015-Aug-15 02:22 UTC. Time now 2015-Sep-05 10:15 UTC.
Position N 31°21' E 032°21'.
Warning: this ship's position is 21 days out of date.

Length 134 m; draft 8 m.

Type: Ship (hazmat cat A). MMSI: 319349000.

Date/timePositionNaut miles runAvg speedWind from/ knotsBaromVisibWave heightAir tempDewpointWater temp
2015-Aug-15 02:22N 31°21' E 032°21'1 0.4
2015-Aug-14 23:10N 31°21' E 032°20'4 1.0
2015-Aug-14 19:33N 31°25' E 032°20'1210.5
2015-Aug-14 18:25N 31°33' E 032°10'1513.1
2015-Aug-14 17:16N 31°44' E 031°58'1013.6
2015-Aug-14 16:33N 31°51' E 031°49'4313.5
2015-Aug-14 13:22N 32°22' E 031°14'5113.4
2015-Aug-14 09:33N 32°60' E 030°33'1313.0
2015-Aug-14 08:33N 33°09' E 030°23'1313.1
2015-Aug-14 07:34N 33°19' E 030°13'1313.4
2015-Aug-14 06:33N 33°29' E 030°02'1413.7
2015-Aug-14 05:34N 33°39' E 029°51'4313.7
2015-Aug-14 02:24N 34°12' E 029°16'17613.7
2015-Aug-13 13:33N 36°22' E 026°51'2613.2
2015-Aug-13 11:33N 36°42' E 026°30'1313.2
2015-Aug-13 10:33N 36°52' E 026°19'1413.7
2015-Aug-13 09:33N 37°03' E 026°08'1313.4
2015-Aug-13 08:33N 37°15' E 026°01'1313.2
2015-Aug-13 07:34N 37°27' E 025°55'1212.4
2015-Aug-13 06:33N 37°39' E 025°51'  
Track history (hours):
 
Tides and Currents Weather Stations Pressure Air Temp Water Temp Dewpoint Dewpoint Depression Visibility Wind Speed Wind Dir Waves Ship Positions

Oriental Freesia

Last reported at 2015-Aug-15 02:22 UTC. Time now 2015-Sep-05 10:15 UTC.
Position N 31°21' E 032°21'.
Warning: this ship's position is 21 days out of date.

Length 134 m; draft 8 m.

Type: Ship (hazmat cat A). MMSI: 319349000.

Date/timePositionNaut miles runAvg speedWind from/ knotsBaromVisibWave heightAir tempDewpointWater temp
2015-Aug-15 02:22N 31°21' E 032°21'1 0.4
2015-Aug-14 23:10N 31°21' E 032°20'4 1.0
2015-Aug-14 19:33N 31°25' E 032°20'1210.5
2015-Aug-14 18:25N 31°33' E 032°10'1513.1
2015-Aug-14 17:16N 31°44' E 031°58'1013.6
2015-Aug-14 16:33N 31°51' E 031°49'4313.5
2015-Aug-14 13:22N 32°22' E 031°14'5113.4
2015-Aug-14 09:33N 32°60' E 030°33'1313.0
2015-Aug-14 08:33N 33°09' E 030°23'1313.1
2015-Aug-14 07:34N 33°19' E 030°13'1313.4
2015-Aug-14 06:33N 33°29' E 030°02'1413.7
2015-Aug-14 05:34N 33°39' E 029°51'4313.7
2015-Aug-14 02:24N 34°12' E 029°16'17613.7
2015-Aug-13 13:33N 36°22' E 026°51'2613.2
2015-Aug-13 11:33N 36°42' E 026°30'1313.2
2015-Aug-13 10:33N 36°52' E 026°19'1413.7
2015-Aug-13 09:33N 37°03' E 026°08'1313.4
2015-Aug-13 08:33N 37°15' E 026°01'1313.2
2015-Aug-13 07:34N 37°27' E 025°55'1212.4
2015-Aug-13 06:33N 37°39' E 025°51'  

Dump ship's entire track history